Time;durP1;ratioP1;P1;durP2;ratioP2;P2;SDS_P1;SDS_P2;PMS_P1;PMS_P2;Temp;Humidity;BMP_temperature;BMP_pressure;BME280_temperature;BME280_humidity;BME280_pressure;Samples;Min_cycle;Max_cycle;Signal;HPM_P1;HPM_P2
2021/03/07 00:01:22;;;;;;;8.25;5.90;;;;;;;3.69;81.95;101831.25;5010952;28;20041;-52
2021/03/07 00:03:49;;;;;;;7.70;5.68;;;;;;;3.63;81.94;101830.84;5012990;28;20065;-51
2021/03/07 00:06:16;;;;;;;7.45;5.50;;;;;;;3.62;82.29;101825.69;5010793;28;20046;-53
2021/03/07 00:08:42;;;;;;;7.72;6.13;;;;;;;3.57;82.30;101826.22;5011379;28;20045;-57
2021/03/07 00:11:24;;;;;;;8.45;6.07;;;;;;;3.60;82.26;101823.00;5011457;28;20149;-52
2021/03/07 00:13:50;;;;;;;6.15;5.50;;;;;;;3.51;82.69;101827.41;5013496;28;20069;-52
2021/03/07 00:16:17;;;;;;;7.22;5.82;;;;;;;3.57;83.47;101815.22;5007731;28;20079;-52
2021/03/07 00:18:43;;;;;;;8.07;6.47;;;;;;;3.69;82.09;101818.59;5011822;28;20045;-54
2021/03/07 00:21:10;;;;;;;7.45;5.82;;;;;;;3.51;83.24;101822.34;5011938;28;20050;-54
2021/03/07 00:23:37;;;;;;;6.72;6.05;;;;;;;3.82;81.89;101820.34;5010983;28;20056;-54
2021/03/07 00:26:04;;;;;;;7.85;6.13;;;;;;;3.57;82.96;101821.16;5010579;28;20093;-53
2021/03/07 00:28:30;;;;;;;7.85;5.88;;;;;;;3.68;82.36;101814.31;5009667;28;20065;-57
2021/03/07 00:30:57;;;;;;;8.48;6.53;;;;;;;3.56;82.53;101818.53;5009600;28;20053;-55
2021/03/07 00:33:23;;;;;;;9.30;6.45;;;;;;;3.70;82.15;101809.38;5010112;28;20050;-53
2021/03/07 00:35:50;;;;;;;9.35;6.22;;;;;;;3.74;81.90;101804.59;5012388;28;20140;-55
2021/03/07 00:38:17;;;;;;;10.65;6.25;;;;;;;3.50;83.12;101811.34;5012671;28;20084;-55
2021/03/07 00:40:44;;;;;;;8.88;6.45;;;;;;;3.76;82.17;101799.66;5011629;28;20049;-55
2021/03/07 00:43:10;;;;;;;6.88;5.82;;;;;;;3.40;83.47;101801.31;5010730;28;20045;-55
2021/03/07 00:45:37;;;;;;;8.07;5.97;;;;;;;3.49;83.67;101798.56;5010341;28;20049;-54
2021/03/07 00:48:04;;;;;;;7.85;5.80;;;;;;;3.81;81.94;101794.16;5011782;28;20052;-55
2021/03/07 00:50:31;;;;;;;8.75;6.40;;;;;;;3.70;82.31;101792.53;5009994;28;20061;-52
2021/03/07 00:52:57;;;;;;;7.70;5.80;;;;;;;3.77;81.93;101784.56;5011470;28;20125;-53
2021/03/07 00:55:25;;;;;;;8.95;5.65;;;;;;;3.71;82.05;101784.16;5009608;28;20053;-54
2021/03/07 00:57:52;;;;;;;10.82;7.30;;;;;;;3.41;83.06;101779.41;5012000;28;20046;-53
2021/03/07 01:00:21;;;;;;;6.97;5.68;;;;;;;3.54;83.06;101777.00;5009994;28;20094;-50
2021/03/07 01:02:48;;;;;;;9.07;6.68;;;;;;;3.38;84.26;101775.03;5011796;28;20041;-50
2021/03/07 01:05:16;;;;;;;9.32;6.35;;;;;;;3.69;82.70;101767.94;5008754;28;20057;-50
2021/03/07 01:07:42;;;;;;;7.97;6.00;;;;;;;3.76;82.29;101765.09;5011134;28;20382;-52
2021/03/07 01:10:33;;;;;;;11.13;6.85;;;;;;;3.56;82.72;101757.75;5010919;28;20049;-56
2021/03/07 01:12:59;;;;;;;8.55;6.70;;;;;;;3.56;83.70;101762.81;5011491;28;20097;-54
2021/03/07 01:15:30;;;;;;;8.13;5.93;;;;;;;3.54;84.09;101761.81;5009605;28;20076;-52
2021/03/07 01:17:59;;;;;;;8.63;6.47;;;;;;;3.61;83.15;101763.13;5011273;28;20143;-55
2021/03/07 01:20:26;;;;;;;11.77;7.97;;;;;;;3.70;83.44;101754.53;5009036;28;20349;-54
2021/03/07 01:22:56;;;;;;;9.45;7.20;;;;;;;3.56;83.70;101750.16;5011875;28;20096;-55
2021/03/07 01:25:26;;;;;;;9.52;6.95;;;;;;;3.64;83.30;101746.47;5010300;28;20050;-52
2021/03/07 01:27:53;;;;;;;10.55;7.05;;;;;;;3.64;83.53;101743.06;5011898;28;20049;-55
2021/03/07 01:30:22;;;;;;;11.73;6.97;;;;;;;3.57;84.42;101740.13;5009333;28;20068;-53
2021/03/07 01:32:48;;;;;;;12.45;8.15;;;;;;;3.70;83.65;101735.91;5011540;28;20046;-49
2021/03/07 01:35:16;;;;;;;11.23;7.80;;;;;;;3.54;84.07;101728.88;5009866;28;20120;-55
2021/03/07 01:37:43;;;;;;;10.82;7.50;;;;;;;3.50;85.19;101717.66;5013070;28;20046;-55
2021/03/07 01:40:13;;;;;;;11.43;8.30;;;;;;;3.54;84.50;101713.69;5010364;28;20461;-55
2021/03/07 01:42:51;;;;;;;12.10;8.68;;;;;;;3.46;85.46;101708.06;5010297;28;20065;-49
2021/03/07 01:45:20;;;;;;;14.88;8.45;;;;;;;3.46;85.53;101704.66;5012734;28;20046;-51
2021/03/07 01:47:53;;;;;;;16.77;9.10;;;;;;;3.52;85.07;101697.53;5010772;28;20433;-55
2021/03/07 01:50:23;;;;;;;12.55;8.60;;;;;;;3.31;85.39;101697.75;5008990;28;20485;-55
2021/03/07 01:52:50;;;;;;;13.10;8.63;;;;;;;3.28;86.38;101684.91;5011080;28;20494;-53
2021/03/07 01:55:19;;;;;;;12.60;9.18;;;;;;;3.28;86.91;101684.00;5008025;28;20041;-52
2021/03/07 01:57:47;;;;;;;12.65;8.75;;;;;;;3.26;86.72;101685.53;5010325;28;20046;-51
2021/03/07 02:00:15;;;;;;;12.35;9.55;;;;;;;3.26;86.76;101683.00;5009645;28;20037;-53
2021/03/07 02:02:42;;;;;;;12.85;9.27;;;;;;;2.94;88.50;101675.66;5009626;28;20438;-54
2021/03/07 02:05:14;;;;;;;12.80;9.50;;;;;;;3.29;86.56;101678.19;5009952;28;20050;-55
2021/03/07 02:07:42;;;;;;;12.25;8.93;;;;;;;3.23;87.50;101662.53;5009481;28;20042;-52
2021/03/07 02:10:12;;;;;;;11.85;8.75;;;;;;;3.20;87.36;101669.94;5010221;28;20041;-54
2021/03/07 02:12:48;;;;;;;14.18;9.52;;;;;;;3.17;86.92;101670.59;5010331;28;20167;-55
2021/03/07 02:15:17;;;;;;;11.35;8.60;;;;;;;3.20;87.62;101668.28;5009383;28;20049;-53
2021/03/07 02:17:44;;;;;;;13.85;9.13;;;;;;;3.19;87.38;101666.53;5010030;28;20603;-56
2021/03/07 02:20:13;;;;;;;12.90;9.05;;;;;;;3.28;86.39;101671.34;5009707;28;20046;-55
2021/03/07 02:22:44;;;;;;;15.77;9.50;;;;;;;2.88;87.89;101665.97;5009399;28;20156;-55
2021/03/07 02:25:13;;;;;;;12.75;9.13;;;;;;;3.12;87.37;101654.19;5009838;28;20053;-52
2021/03/07 02:27:40;;;;;;;11.43;7.50;;;;;;;2.93;86.00;101657.06;5008992;28;20100;-56
2021/03/07 02:30:10;;;;;;;9.75;7.50;;;;;;;2.98;85.92;101658.28;5010944;28;20060;-56
2021/03/07 02:32:42;;;;;;;10.30;6.28;;;;;;;3.08;84.71;101656.41;5009920;28;20060;-54
2021/03/07 02:35:21;;;;;;;8.80;6.47;;;;;;;2.75;85.00;101659.16;5015770;28;20072;-57
2021/03/07 02:37:52;;;;;;;7.40;5.45;;;;;;;2.91;84.59;101650.13;5016479;28;20064;-52
2021/03/07 02:40:22;;;;;;;8.60;5.43;;;;;;;3.14;82.86;101642.50;5012352;28;20581;-52
2021/03/07 02:43:10;;;;;;;6.22;4.70;;;;;;;3.11;81.92;101638.91;5015586;28;20049;-55
2021/03/07 02:45:38;;;;;;;8.25;4.30;;;;;;;3.23;81.15;101644.81;5012604;28;20129;-52
2021/03/07 02:48:08;;;;;;;9.15;4.32;;;;;;;3.10;80.36;101642.19;5013693;28;20041;-53
2021/03/07 02:50:35;;;;;;;4.72;3.90;;;;;;;3.20;80.12;101644.63;5012265;28;20050;-52
2021/03/07 02:53:09;;;;;;;5.70;3.80;;;;;;;3.12;80.38;101643.19;5014228;28;20049;-55
2021/03/07 02:55:38;;;;;;;5.28;3.83;;;;;;;2.92;80.97;101642.66;5012353;28;20049;-49
2021/03/07 02:58:11;;;;;;;7.97;4.47;;;;;;;2.95;81.29;101635.28;5013617;28;20405;-56
2021/03/07 03:00:38;;;;;;;9.02;4.10;;;;;;;2.97;81.57;101633.75;5012377;28;20060;-55
2021/03/07 03:03:08;;;;;;;8.73;4.57;;;;;;;3.01;81.16;101639.91;5015458;28;20122;-51
2021/03/07 03:05:37;;;;;;;6.18;4.53;;;;;;;2.99;82.15;101638.91;5012252;28;20046;-52
2021/03/07 03:08:05;;;;;;;5.60;4.70;;;;;;;3.11;81.15;101637.25;5013047;28;20057;-52
2021/03/07 03:10:33;;;;;;;6.47;4.00;;;;;;;3.15;80.76;101633.31;5011175;28;20053;-53
2021/03/07 03:13:01;;;;;;;5.80;4.47;;;;;;;2.95;81.78;101631.88;5014136;28;20413;-54
2021/03/07 03:15:29;;;;;;;7.15;4.55;;;;;;;2.85;81.63;101625.28;5011455;28;20398;-53
2021/03/07 03:17:57;;;;;;;4.43;3.40;;;;;;;3.01;79.09;101623.09;5013039;28;20107;-53
2021/03/07 03:20:26;;;;;;;4.43;2.92;;;;;;;2.93;78.78;101620.78;5010826;28;20057;-52
2021/03/07 03:22:57;;;;;;;3.63;2.72;;;;;;;2.91;77.62;101627.34;5014218;28;20064;-52
2021/03/07 03:25:24;;;;;;;2.70;2.45;;;;;;;2.85;76.81;101624.41;5011211;28;20049;-55
2021/03/07 03:27:53;;;;;;;5.18;2.40;;;;;;;2.69;76.80;101625.84;5012828;28;20068;-51
2021/03/07 03:30:21;;;;;;;3.90;1.98;;;;;;;2.98;75.27;101622.84;5010928;28;20060;-53
2021/03/07 03:32:48;;;;;;;3.92;1.60;;;;;;;3.00;74.96;101617.88;5013276;28;20049;-53
2021/03/07 03:35:17;;;;;;;2.75;1.60;;;;;;;3.01;74.08;101620.56;5011464;28;20073;-50
2021/03/07 03:37:45;;;;;;;2.97;1.35;;;;;;;2.92;73.44;101616.50;5014921;28;20049;-51
2021/03/07 03:40:22;;;;;;;3.10;1.42;;;;;;;2.77;73.48;101619.69;5011881;28;20041;-53
2021/03/07 03:43:10;;;;;;;3.35;1.58;;;;;;;2.70;73.99;101619.13;5013309;28;20052;-50
2021/03/07 03:45:40;;;;;;;1.77;1.02;;;;;;;3.01;72.92;101618.03;5012959;28;20046;-56
2021/03/07 03:48:09;;;;;;;4.22;1.58;;;;;;;2.86;73.69;101614.38;5014313;28;20041;-52
2021/03/07 03:50:39;;;;;;;4.65;1.65;;;;;;;2.67;74.19;101613.84;5011352;28;20449;-53
2021/03/07 03:53:10;;;;;;;3.67;1.48;;;;;;;2.72;74.76;101615.91;5014614;28;20041;-55
2021/03/07 03:55:40;;;;;;;2.35;1.55;;;;;;;2.74;75.02;101609.34;5011491;28;20053;-55
2021/03/07 03:58:10;;;;;;;9.75;2.42;;;;;;;2.83;75.20;101610.78;5014336;28;20046;-53
2021/03/07 04:00:39;;;;;;;2.83;1.80;;;;;;;2.73;76.46;101602.53;5011400;28;20494;-50
2021/03/07 04:03:12;;;;;;;3.92;2.53;;;;;;;2.62;77.23;101610.09;5014245;28;20037;-53
2021/03/07 04:05:41;;;;;;;4.97;2.10;;;;;;;2.84;76.86;101599.88;5011039;28;20378;-54
2021/03/07 04:08:08;;;;;;;4.53;2.35;;;;;;;2.55;78.37;101604.63;5014447;28;20716;-52
2021/03/07 04:10:36;;;;;;;5.43;2.17;;;;;;;2.69;77.69;101605.59;5010752;28;20514;-53
2021/03/07 04:13:03;;;;;;;5.38;2.38;;;;;;;2.75;77.74;101603.50;5012389;28;20782;-51
2021/03/07 04:15:31;;;;;;;5.38;2.80;;;;;;;2.74;77.92;101599.22;5010845;28;20057;-54
2021/03/07 04:17:58;;;;;;;5.53;2.30;;;;;;;2.64;78.87;101598.47;5014427;28;20056;-54
2021/03/07 04:20:27;;;;;;;5.55;2.72;;;;;;;2.63;78.51;101596.69;5010277;28;20042;-57
2021/03/07 04:22:54;;;;;;;4.50;2.42;;;;;;;2.67;78.09;101586.91;5013185;28;20053;-54
2021/03/07 04:25:21;;;;;;;7.22;3.42;;;;;;;2.51;79.10;101591.63;5011346;28;20418;-55
2021/03/07 04:27:49;;;;;;;6.53;2.22;;;;;;;2.66;78.10;101589.31;5011880;28;20042;-52
2021/03/07 04:30:20;;;;;;;3.97;2.38;;;;;;;2.68;78.10;101585.25;5009944;28;20042;-54
2021/03/07 04:32:47;;;;;;;6.22;2.50;;;;;;;2.75;77.82;101590.88;5013119;28;20102;-54
2021/03/07 04:35:14;;;;;;;5.78;2.35;;;;;;;2.44;78.13;101585.25;5011723;28;20578;-54
2021/03/07 04:37:41;;;;;;;5.35;2.40;;;;;;;2.36;78.33;101572.81;5014879;28;20056;-55
2021/03/07 04:40:08;;;;;;;4.03;2.28;;;;;;;2.48;77.83;101574.59;5012886;28;20049;-57
2021/03/07 04:42:35;;;;;;;5.18;2.42;;;;;;;2.67;77.74;101589.44;5011522;28;20045;-54
2021/03/07 04:45:03;;;;;;;5.03;2.13;;;;;;;2.57;78.01;101589.53;5012950;28;20052;-57
2021/03/07 04:47:30;;;;;;;5.70;1.92;;;;;;;2.55;76.96;101576.81;5010639;28;20046;-53
2021/03/07 04:49:56;;;;;;;5.40;2.38;;;;;;;2.49;76.94;101576.34;5012579;28;20056;-57
2021/03/07 04:52:23;;;;;;;4.30;2.30;;;;;;;2.42;77.22;101579.22;5010674;28;20053;-54
2021/03/07 04:54:49;;;;;;;4.45;2.15;;;;;;;2.51;76.60;101582.41;5012830;28;20046;-57
2021/03/07 04:57:16;;;;;;;3.40;2.38;;;;;;;2.51;76.29;101582.41;5014942;28;20418;-53
2021/03/07 04:59:43;;;;;;;4.85;2.28;;;;;;;2.48;77.04;101574.59;5011907;28;20329;-55
2021/03/07 05:02:09;;;;;;;6.25;2.50;;;;;;;2.51;76.51;101576.47;5011917;28;20053;-54
2021/03/07 05:04:36;;;;;;;2.97;1.50;;;;;;;2.44;76.30;101571.72;5011580;28;20123;-56
2021/03/07 05:07:03;;;;;;;4.88;2.15;;;;;;;2.57;75.85;101563.38;5011761;28;20409;-54
2021/03/07 05:09:30;;;;;;;5.18;2.28;;;;;;;2.35;76.12;101571.94;5010425;28;20053;-55
2021/03/07 05:11:56;;;;;;;4.80;2.20;;;;;;;2.33;76.04;101560.84;5012244;28;20045;-51
2021/03/07 05:14:23;;;;;;;4.43;2.63;;;;;;;2.25;76.16;101567.88;5010163;28;20046;-50
2021/03/07 05:16:49;;;;;;;5.47;2.10;;;;;;;2.37;76.00;101567.88;5012517;28;20053;-51
2021/03/07 05:19:16;;;;;;;6.15;2.72;;;;;;;2.26;76.05;101563.69;5010826;28;20697;-51
2021/03/07 05:21:43;;;;;;;5.35;2.28;;;;;;;2.35;76.04;101555.91;5011694;28;20073;-57
2021/03/07 05:24:09;;;;;;;5.38;2.40;;;;;;;2.28;75.98;101557.13;5011674;28;20050;-54
2021/03/07 05:26:36;;;;;;;6.93;2.58;;;;;;;2.25;75.78;101562.81;5010537;28;20053;-56
2021/03/07 05:29:02;;;;;;;4.30;2.35;;;;;;;2.09;76.56;101562.47;5012424;28;20049;-55
2021/03/07 05:31:29;;;;;;;2.80;2.10;;;;;;;2.40;75.06;101549.53;5010092;28;20065;-57
2021/03/07 05:33:56;;;;;;;5.20;2.20;;;;;;;2.36;75.22;101537.44;5013401;28;20887;-53
2021/03/07 05:36:23;;;;;;;8.32;2.95;;;;;;;2.00;75.97;101541.59;5009729;28;20038;-50
2021/03/07 05:38:49;;;;;;;4.03;2.05;;;;;;;2.24;75.37;101545.03;5015231;28;20080;-53
2021/03/07 05:41:16;;;;;;;5.47;1.90;;;;;;;2.29;74.26;101539.53;5010596;28;20053;-53
2021/03/07 05:43:42;;;;;;;6.57;2.47;;;;;;;2.22;74.70;101544.03;5011491;28;20072;-56
2021/03/07 05:46:09;;;;;;;6.38;3.53;;;;;;;2.38;74.22;101543.50;5011191;28;20056;-54
2021/03/07 05:48:36;;;;;;;6.00;2.22;;;;;;;2.25;75.05;101534.13;5010738;28;20053;-50
2021/03/07 05:51:03;;;;;;;4.13;2.63;;;;;;;2.34;74.56;101539.84;5012159;28;20042;-53
2021/03/07 05:53:31;;;;;;;3.40;2.00;;;;;;;2.38;74.51;101535.91;5009849;28;20403;-56
2021/03/07 05:55:58;;;;;;;4.38;1.95;;;;;;;2.28;74.92;101529.31;5011651;28;20233;-56
2021/03/07 05:58:26;;;;;;;6.47;2.30;;;;;;;2.47;73.50;101529.00;5009873;28;20061;-53
2021/03/07 06:00:54;;;;;;;2.78;2.05;;;;;;;2.44;72.80;101527.09;5012768;28;20052;-54
2021/03/07 06:03:22;;;;;;;6.28;2.38;;;;;;;2.32;72.97;101522.84;5011124;28;20050;-52
2021/03/07 06:05:51;;;;;;;6.25;2.60;;;;;;;2.11;74.43;101527.22;5012060;28;20056;-53
2021/03/07 06:08:19;;;;;;;8.95;2.45;;;;;;;2.32;74.57;101517.78;5011541;28;20069;-52
2021/03/07 06:10:46;;;;;;;4.72;2.10;;;;;;;2.24;74.65;101522.28;5015265;28;20191;-53
2021/03/07 06:13:13;;;;;;;5.13;2.45;;;;;;;2.32;74.08;101530.41;5013338;28;20053;-55
2021/03/07 06:15:50;;;;;;;7.25;2.95;;;;;;;2.23;74.19;101534.03;5013671;28;20474;-54
2021/03/07 06:18:21;;;;;;;4.90;2.50;;;;;;;2.19;74.11;101527.00;5014862;28;20100;-55
2021/03/07 06:20:53;;;;;;;9.43;2.20;;;;;;;2.52;73.57;101532.72;5016047;28;20057;-50
2021/03/07 06:23:36;;;;;;;4.90;2.17;;;;;;;2.44;72.68;101511.06;5014120;28;20713;-57
2021/03/07 06:26:12;;;;;;;3.95;2.63;;;;;;;2.57;71.93;101510.28;5014895;28;20052;-52
2021/03/07 06:28:38;;;;;;;2.45;1.95;;;;;;;2.32;72.73;101525.38;5014756;28;20046;-51
2021/03/07 06:31:29;;;;;;;2.95;2.10;;;;;;;2.58;71.58;101520.50;5013683;28;20053;-56
2021/03/07 06:33:58;;;;;;;5.60;1.88;;;;;;;2.57;71.16;101521.28;5022468;28;20118;-53
2021/03/07 06:36:26;;;;;;;4.35;1.92;;;;;;;2.36;71.25;101518.13;5012798;28;20045;-53
2021/03/07 06:39:01;;;;;;;4.30;1.92;;;;;;;2.40;70.49;101516.66;5018621;28;20068;-52
2021/03/07 06:41:32;;;;;;;3.67;1.85;;;;;;;2.53;70.66;101525.22;5014209;28;20046;-54
2021/03/07 06:44:15;;;;;;;4.35;2.10;;;;;;;2.57;68.28;101515.34;5015020;28;20045;-51
2021/03/07 06:46:45;;;;;;;6.07;2.33;;;;;;;2.65;68.63;101515.13;5013166;28;20046;-53
2021/03/07 06:49:27;;;;;;;3.00;2.13;;;;;;;2.39;69.07;101517.44;5014808;28;20064;-52
2021/03/07 06:52:10;;;;;;;2.45;1.95;;;;;;;2.60;69.01;101513.03;5011056;28;20049;-57
2021/03/07 06:54:36;;;;;;;3.05;2.13;;;;;;;2.71;68.41;101512.13;5013885;28;20103;-52
2021/03/07 06:57:03;;;;;;;3.72;1.92;;;;;;;2.69;68.73;101518.75;5014391;28;20056;-52
2021/03/07 06:59:30;;;;;;;3.72;2.88;;;;;;;2.57;68.49;101510.28;5012652;28;20451;-51
2021/03/07 07:01:57;;;;;;;4.07;2.30;;;;;;;2.51;68.74;101509.09;5014426;28;20052;-50
2021/03/07 07:04:37;;;;;;;2.60;2.40;;;;;;;2.76;67.93;101509.16;5013232;28;20128;-52
2021/03/07 07:07:05;;;;;;;3.25;1.77;;;;;;;2.84;67.12;101502.13;5014301;28;20108;-48
2021/03/07 07:09:32;;;;;;;4.57;2.25;;;;;;;2.76;67.97;101509.16;5011487;28;20124;-49
2021/03/07 07:11:59;;;;;;;5.75;2.47;;;;;;;2.74;68.82;101513.25;5014289;28;20065;-46
2021/03/07 07:14:41;;;;;;;7.90;2.97;;;;;;;2.62;68.74;101507.31;5011754;28;20053;-51
2021/03/07 07:17:13;;;;;;;5.68;2.53;;;;;;;2.86;68.15;101503.09;5011946;28;20187;-52
2021/03/07 07:19:41;;;;;;;8.00;3.28;;;;;;;2.84;67.79;101507.19;5013473;28;20049;-50
2021/03/07 07:22:11;;;;;;;4.63;2.47;;;;;;;2.80;68.61;101506.06;5013713;28;20049;-53
2021/03/07 07:24:39;;;;;;;5.70;2.60;;;;;;;2.89;67.97;101512.56;5011425;28;20048;-49
2021/03/07 07:27:06;;;;;;;3.35;2.10;;;;;;;2.99;67.35;101505.69;5015689;28;20053;-49
2021/03/07 07:29:34;;;;;;;6.72;2.38;;;;;;;2.88;68.39;101508.28;5011113;28;20053;-50
2021/03/07 07:32:11;;;;;;;1.80;1.48;;;;;;;3.25;66.20;101514.22;5013408;28;20480;-54
2021/03/07 07:34:50;;;;;;;1.92;1.55;;;;;;;3.11;65.47;101508.22;4998687;28;20046;-53
2021/03/07 07:37:23;;;;;;;4.20;1.67;;;;;;;3.26;66.42;101508.38;5028447;28;20046;-51
2021/03/07 07:39:52;;;;;;;3.42;1.45;;;;;;;3.08;66.82;101507.97;5013048;28;20052;-50
2021/03/07 07:42:20;;;;;;;6.45;1.70;;;;;;;3.23;66.49;101503.09;5011166;28;20057;-50
2021/03/07 07:44:47;;;;;;;3.45;1.70;;;;;;;3.34;65.11;101503.84;5012764;28;20045;-49
2021/03/07 07:47:14;;;;;;;4.45;1.40;;;;;;;3.19;65.70;101507.09;5011553;28;20075;-50
2021/03/07 07:49:50;;;;;;;4.65;1.33;;;;;;;2.94;65.86;101508.69;5013193;28;20041;-53
2021/03/07 07:52:25;;;;;;;5.10;1.50;;;;;;;3.05;65.80;101507.75;5012831;28;20399;-49
2021/03/07 07:55:08;;;;;;;7.75;2.85;;;;;;;3.08;65.63;101507.09;5014771;28;20057;-49
2021/03/07 07:57:35;;;;;;;3.25;1.10;;;;;;;3.01;64.40;101499.09;5014009;28;20058;-52
2021/03/07 08:00:05;;;;;;;3.65;1.45;;;;;;;3.09;64.94;101496.22;5014629;28;20568;-53
2021/03/07 08:02:44;;;;;;;2.90;1.33;;;;;;;2.95;64.33;101503.72;5012306;28;20068;-52
2021/03/07 08:05:20;;;;;;;2.13;1.38;;;;;;;3.18;64.00;101496.84;5016082;28;20091;-51
2021/03/07 08:07:56;;;;;;;;;;;;;;;3.28;63.32;101505.19;5014772;28;20042;-49
2021/03/07 08:10:40;;;;;;;3.80;1.20;;;;;;;3.18;63.82;101496.84;5009486;28;19925;-53
2021/03/07 08:13:09;;;;;;;1.98;1.17;;;;;;;3.30;63.78;101507.81;5008911;28;20046;-51
2021/03/07 08:15:40;;;;;;;2.70;1.50;;;;;;;3.24;64.19;101497.28;5010376;28;20037;-54
2021/03/07 08:18:06;;;;;;;1.40;0.98;;;;;;;3.33;63.16;101497.91;5014526;28;20950;-49
2021/03/07 08:20:42;;;;;;;3.35;1.20;;;;;;;3.27;63.47;101498.34;5011347;28;20071;-50
2021/03/07 08:23:17;;;;;;;2.92;1.20;;;;;;;3.31;63.35;101494.38;5011041;28;20643;-50
2021/03/07 08:25:50;;;;;;;5.97;1.50;;;;;;;3.44;62.72;101499.47;5007527;28;20042;-47
2021/03/07 08:28:38;;;;;;;3.33;1.27;;;;;;;3.54;62.36;101485.78;5011469;28;20119;-49
2021/03/07 08:31:15;;;;;;;2.05;1.42;;;;;;;3.62;62.67;101483.78;5012630;28;20038;-49
2021/03/07 08:33:42;;;;;;;4.20;1.33;;;;;;;3.36;63.86;101484.56;5012081;28;20049;-53
2021/03/07 08:36:12;;;;;;;2.05;1.20;;;;;;;3.68;62.85;101474.03;5012168;28;20104;-51
2021/03/07 08:38:53;;;;;;;1.67;0.93;;;;;;;3.58;61.74;101475.97;5014321;28;20510;-48
2021/03/07 08:41:26;;;;;;;4.65;1.40;;;;;;;3.50;63.33;101461.91;5011785;28;20086;-50
2021/03/07 08:43:57;;;;;;;3.60;1.40;;;;;;;3.68;61.81;101464.78;5013820;28;20056;-49
2021/03/07 08:46:28;;;;;;;4.40;1.50;;;;;;;3.54;63.08;101466.41;5011536;28;20060;-49
2021/03/07 08:49:07;;;;;;;3.20;1.10;;;;;;;3.81;62.26;101463.94;5013734;28;20045;-52
2021/03/07 08:51:36;;;;;;;3.92;1.42;;;;;;;3.80;61.76;101472.31;5010956;28;20087;-49
2021/03/07 08:54:08;;;;;;;2.95;1.25;;;;;;;3.72;61.68;101463.34;5013017;28;20052;-49
2021/03/07 08:56:36;;;;;;;6.03;1.58;;;;;;;3.59;62.63;101451.50;5010578;28;20061;-51
2021/03/07 08:59:07;;;;;;;2.42;1.50;;;;;;;3.83;62.34;101458.16;5011987;28;20041;-54
2021/03/07 09:01:34;;;;;;;5.50;1.48;;;;;;;3.59;62.62;101451.50;5010840;28;20038;-53
2021/03/07 09:04:04;;;;;;;5.28;1.60;;;;;;;3.90;62.90;101453.53;5012860;28;20049;-49
2021/03/07 09:06:33;;;;;;;3.83;1.27;;;;;;;3.61;62.89;101451.63;5010508;28;20050;-52
2021/03/07 09:09:11;;;;;;;2.65;1.40;;;;;;;3.67;62.92;101457.09;5012086;28;20076;-49
2021/03/07 09:12:14;;;;;;;6.13;1.33;;;;;;;3.85;62.07;101453.22;5010991;28;20057;-50
2021/03/07 09:14:41;;;;;;;2.20;1.58;;;;;;;3.78;62.62;101451.06;5012296;28;20046;-53
2021/03/07 09:17:16;;;;;;;2.10;1.50;;;;;;;3.82;62.19;101447.94;5014316;28;20065;-52
2021/03/07 09:19:43;;;;;;;4.35;1.52;;;;;;;3.80;61.90;101437.72;5011500;28;20124;-53
2021/03/07 09:22:19;;;;;;;4.60;1.80;;;;;;;3.68;62.91;101438.56;5011749;28;20049;-53
2021/03/07 09:25:05;;;;;;;2.30;1.50;;;;;;;3.98;62.79;101439.69;5008900;28;20057;-52
2021/03/07 09:27:39;;;;;;;4.13;1.95;;;;;;;3.71;62.68;101428.66;5006943;28;20052;-47
2021/03/07 09:30:19;;;;;;;4.40;1.50;;;;;;;4.01;61.73;101438.22;5008178;28;20817;-52
2021/03/07 09:32:48;;;;;;;3.33;2.10;;;;;;;3.80;63.03;101431.78;5009237;28;20050;-50
2021/03/07 09:35:36;;;;;;;3.47;2.40;;;;;;;3.98;62.51;101434.63;5007141;28;20037;-50
2021/03/07 09:38:08;;;;;;;4.68;2.00;;;;;;;3.96;62.40;101439.56;5013174;28;20042;-51
2021/03/07 09:40:38;;;;;;;5.57;2.20;;;;;;;3.64;62.54;101423.97;5007435;28;20229;-50
2021/03/07 09:43:11;;;;;;;4.75;3.08;;;;;;;3.96;62.29;101423.50;5010652;28;20557;-52
2021/03/07 09:45:39;;;;;;;3.53;2.42;;;;;;;4.07;62.09;101431.03;5012198;28;20156;-52
2021/03/07 09:48:17;;;;;;;4.03;2.25;;;;;;;4.25;61.25;101423.72;5010152;28;20042;-53
2021/03/07 09:50:45;;;;;;;5.90;3.20;;;;;;;4.18;62.76;101429.16;5016858;28;20069;-51
2021/03/07 09:53:13;;;;;;;4.63;3.03;;;;;;;4.21;61.75;101423.41;5012604;28;20108;-55
2021/03/07 09:55:42;;;;;;;3.85;2.60;;;;;;;4.13;61.12;101430.53;5011251;28;20666;-49
2021/03/07 09:58:11;;;;;;;2.85;1.88;;;;;;;4.38;61.19;101425.31;5012497;28;20096;-51
2021/03/07 10:00:40;;;;;;;4.45;2.17;;;;;;;4.27;61.65;101422.13;5014427;28;20458;-48
2021/03/07 10:03:21;;;;;;;5.90;2.50;;;;;;;4.07;62.17;101423.41;5014904;28;20473;-52
2021/03/07 10:06:08;;;;;;;2.63;2.40;;;;;;;3.94;62.19;101431.00;5012379;28;20050;-53
2021/03/07 10:08:36;;;;;;;2.65;1.80;;;;;;;4.23;61.42;101421.84;5012132;28;20072;-53
2021/03/07 10:11:11;;;;;;;5.50;2.10;;;;;;;4.04;62.31;101415.63;5012570;28;20076;-50
2021/03/07 10:13:39;;;;;;;3.95;2.55;;;;;;;4.03;62.71;101415.53;5012815;28;20056;-48
2021/03/07 10:16:07;;;;;;;3.40;2.47;;;;;;;4.23;61.90;101419.31;5015099;28;20046;-51
2021/03/07 10:18:38;;;;;;;4.75;4.13;;;;;;;4.32;62.31;101425.81;5012740;28;20203;-53
2021/03/07 10:21:06;;;;;;;3.85;2.45;;;;;;;4.15;61.72;101431.47;5012429;28;20134;-52
2021/03/07 10:23:34;;;;;;;7.65;2.60;;;;;;;4.10;62.40;101422.72;5011889;28;20050;-52
2021/03/07 10:26:04;;;;;;;4.97;2.65;;;;;;;3.97;62.53;101431.19;5012265;28;20178;-51
2021/03/07 10:28:33;;;;;;;4.70;2.58;;;;;;;4.16;61.97;101427.28;5011713;28;20068;-48
2021/03/07 10:31:12;;;;;;;6.90;3.30;;;;;;;4.40;61.94;101421.25;5012588;28;20056;-51
2021/03/07 10:33:39;;;;;;;6.13;3.20;;;;;;;4.39;62.48;101416.06;5012786;28;20533;-54
2021/03/07 10:36:08;;;;;;;5.90;3.58;;;;;;;4.34;62.80;101414.13;5016343;28;20053;-50
2021/03/07 10:38:34;;;;;;;5.30;3.15;;;;;;;4.16;62.23;101413.00;5014259;28;20037;-50
2021/03/07 10:41:21;;;;;;;6.32;2.97;;;;;;;3.98;62.08;101405.09;5012936;28;20052;-45
2021/03/07 10:43:53;;;;;;;6.13;3.50;;;;;;;4.14;63.48;101409.47;5012105;28;20049;-47
2021/03/07 10:46:36;;;;;;;4.57;3.10;;;;;;;4.24;62.49;101409.25;5012067;28;20053;-48
2021/03/07 10:49:20;;;;;;;7.07;3.58;;;;;;;4.22;62.17;101410.81;5011517;28;20045;-51
2021/03/07 10:51:47;;;;;;;7.50;3.15;;;;;;;4.29;62.24;101412.94;5013503;28;20395;-47
2021/03/07 10:54:14;;;;;;;5.78;2.80;;;;;;;4.33;62.37;101411.50;5011014;28;20375;-47
2021/03/07 10:56:41;;;;;;;5.90;2.80;;;;;;;4.16;62.23;101401.94;5012395;28;20042;-48
2021/03/07 10:59:09;;;;;;;7.25;3.03;;;;;;;4.43;62.00;101405.31;5011997;28;20061;-47
2021/03/07 11:01:39;;;;;;;5.18;2.70;;;;;;;4.24;62.04;101409.25;5011794;28;20042;-50
2021/03/07 11:04:06;;;;;;;7.53;3.85;;;;;;;4.43;62.10;101407.84;5011685;28;20077;-53
2021/03/07 11:06:33;;;;;;;4.63;2.63;;;;;;;4.27;61.99;101398.44;5011006;28;20049;-47
2021/03/07 11:08:59;;;;;;;4.28;2.78;;;;;;;4.34;61.83;101398.03;5010092;28;20046;-47
2021/03/07 11:11:26;;;;;;;5.32;3.20;;;;;;;4.20;62.47;101388.69;5017488;28;20100;-53
2021/03/07 11:13:53;;;;;;;3.13;2.83;;;;;;;3.94;63.21;101399.75;5011789;28;20045;-51
2021/03/07 11:16:19;;;;;;;5.30;3.22;;;;;;;4.28;62.39;101390.91;5011267;28;20041;-49
2021/03/07 11:18:52;;;;;;;4.70;2.97;;;;;;;4.02;63.33;101383.34;5011966;28;20672;-51
2021/03/07 11:21:21;;;;;;;5.60;3.30;;;;;;;4.22;62.11;101382.94;5012211;28;20128;-46
2021/03/07 11:23:48;;;;;;;11.90;3.28;;;;;;;4.21;62.75;101378.66;5013244;28;20042;-48
2021/03/07 11:26:14;;;;;;;6.07;3.08;;;;;;;4.52;62.04;101371.25;5011077;28;20045;-51
2021/03/07 11:28:46;;;;;;;3.70;2.58;;;;;;;4.43;61.60;101380.84;5011022;28;20046;-53
2021/03/07 11:31:13;;;;;;;6.55;3.55;;;;;;;4.38;62.27;101368.66;5012508;28;20053;-50
2021/03/07 11:33:39;;;;;;;5.85;3.08;;;;;;;4.63;61.82;101360.91;5012894;28;20070;-51
2021/03/07 11:36:08;;;;;;;4.93;2.97;;;;;;;4.72;60.61;101367.41;5010003;28;20525;-47
2021/03/07 11:38:36;;;;;;;6.40;3.17;;;;;;;4.43;62.32;101363.09;5015464;28;20096;-50
2021/03/07 11:41:03;;;;;;;3.72;2.90;;;;;;;4.48;62.10;101364.25;5016252;28;20498;-48
2021/03/07 11:43:30;;;;;;;6.65;3.03;;;;;;;4.60;61.46;101362.47;5017310;28;20049;-49
2021/03/07 11:45:56;;;;;;;6.00;3.40;;;;;;;4.43;62.25;101352.94;5004083;28;20049;-49